Time;durP1;ratioP1;P1;durP2;ratioP2;P2;SDS_P1;SDS_P2;PMS_P1;PMS_P2;Temp;Humidity;BMP_temperature;BMP_pressure;BME280_temperature;BME280_humidity;BME280_pressure;Samples;Min_cycle;Max_cycle;Signal;HPM_P1;HPM_P2
2022/12/01 00:01:03;;;;;;;;;;;;;;;;;;4391441;32;19941;-71
2022/12/01 00:03:28;;;;;;;;;;;;;;;;;;4392763;32;19942;-72
2022/12/01 00:05:53;;;;;;;;;;;;;;;;;;4400703;32;19989;-71
2022/12/01 00:08:18;;;;;;;;;;;;;;;;;;4407831;32;19957;-72
2022/12/01 00:10:43;;;;;;;;;;;;;;;;;;4407688;32;19950;-72
2022/12/01 00:13:09;;;;;;;;;;;;;;;;;;4405905;32;19957;-71
2022/12/01 00:15:34;;;;;;;;;;;;;;;;;;4399608;32;19930;-71
2022/12/01 00:17:59;;;;;;;;;;;;;;;;;;4392191;32;19972;-71
2022/12/01 00:20:24;;;;;;;;;;;;;;;;;;4391080;32;19995;-72
2022/12/01 00:22:49;;;;;;;;;;;;;;;;;;4392304;32;19938;-72
2022/12/01 00:25:14;;;;;;;;;;;;;;;;;;4394069;32;19975;-73
2022/12/01 00:27:39;;;;;;;;;;;;;;;;;;4405303;32;19992;-73
2022/12/01 00:30:04;;;;;;;;;;;;;;;;;;4407072;32;20363;-72
2022/12/01 00:32:29;;;;;;;;;;;;;;;;;;4405353;32;19956;-72
2022/12/01 00:34:54;;;;;;;;;;;;;;;;;;4404067;32;19933;-71
2022/12/01 00:37:20;;;;;;;;;;;;;;;;;;4390593;32;19938;-71
2022/12/01 00:39:45;;;;;;;;;;;;;;;;;;4391128;32;19982;-72
2022/12/01 00:42:10;;;;;;;;;;;;;;;;;;4391726;32;19949;-72
2022/12/01 00:44:35;;;;;;;;;;;;;;;;;;4391568;32;19956;-72
2022/12/01 00:47:00;;;;;;;;;;;;;;;;;;4391844;32;19938;-71
2022/12/01 00:49:25;;;;;;;;;;;;;;;;;;4391093;32;19933;-71
2022/12/01 00:51:50;;;;;;;;;;;;;;;;;;4390664;32;20002;-71
2022/12/01 00:54:15;;;;;;;;;;;;;;;;;;4391051;32;20345;-72
2022/12/01 00:56:40;;;;;;;;;;;;;;;;;;4401284;32;19934;-72
2022/12/01 00:59:05;;;;;;;;;;;;;;;;;;4406700;32;19937;-72
2022/12/01 01:01:30;;;;;;;;;;;;;;;;;;4404773;32;19941;-70
2022/12/01 01:03:55;;;;;;;;;;;;;;;;;;4406637;32;19967;-71
2022/12/01 01:06:20;;;;;;;;;;;;;;;;;;4396982;32;19949;-71
2022/12/01 01:08:46;;;;;;;;;;;;;;;;;;4390624;32;19937;-71
2022/12/01 01:11:11;;;;;;;;;;;;;;;;;;4390184;32;19946;-71
2022/12/01 01:13:36;;;;;;;;;;;;;;;;;;4390250;32;19934;-71
2022/12/01 01:16:01;;;;;;;;;;;;;;;;;;4395573;32;20003;-73
2022/12/01 01:18:26;;;;;;;;;;;;;;;;;;4405930;32;19992;-72
2022/12/01 01:20:51;;;;;;;;;;;;;;;;;;4406411;32;20007;-71
2022/12/01 01:23:16;;;;;;;;;;;;;;;;;;4405605;32;19968;-72
2022/12/01 01:25:41;;;;;;;;;;;;;;;;;;4404102;32;19973;-71
2022/12/01 01:28:06;;;;;;;;;;;;;;;;;;4389183;32;19952;-71
2022/12/01 01:30:31;;;;;;;;;;;;;;;;;;4391051;32;20021;-72
2022/12/01 01:32:56;;;;;;;;;;;;;;;;;;4390718;32;19938;-72
2022/12/01 01:35:22;;;;;;;;;;;;;;;;;;4391320;32;19977;-72
2022/12/01 01:37:48;;;;;;;;;;;;;;;;;;4406545;32;20336;-72
2022/12/01 01:40:13;;;;;;;;;;;;;;;;;;4404865;32;20396;-72
2022/12/01 01:42:39;;;;;;;;;;;;;;;;;;4405472;32;20318;-72
2022/12/01 01:45:04;;;;;;;;;;;;;;;;;;4406387;32;19985;-71
2022/12/01 01:47:29;;;;;;;;;;;;;;;;;;4395660;32;20002;-72
2022/12/01 01:49:54;;;;;;;;;;;;;;;;;;4390836;32;19934;-72
2022/12/01 01:52:19;;;;;;;;;;;;;;;;;;4391260;32;19953;-72
2022/12/01 01:54:44;;;;;;;;;;;;;;;;;;4391036;32;19949;-71
2022/12/01 01:57:09;;;;;;;;;;;;;;;;;;4403326;32;19978;-72
2022/12/01 01:59:35;;;;;;;;;;;;;;;;;;4406560;32;19945;-72
2022/12/01 02:02:00;;;;;;;;;;;;;;;;;;4407927;32;20322;-71
2022/12/01 02:04:25;;;;;;;;;;;;;;;;;;4409241;32;19930;-71
2022/12/01 02:06:50;;;;;;;;;;;;;;;;;;4400422;32;19946;-71
2022/12/01 02:09:15;;;;;;;;;;;;;;;;;;4392813;32;19948;-72
2022/12/01 02:11:47;;;;;;;;;;;;;;;;;;4390652;32;19945;-71
2022/12/01 02:14:12;;;;;;;;;;;;;;;;;;4393040;32;20016;-71
2022/12/01 02:16:37;;;;;;;;;;;;;;;;;;4399263;32;19938;-71
2022/12/01 02:19:02;;;;;;;;;;;;;;;;;;4408260;32;19953;-71
2022/12/01 02:21:27;;;;;;;;;;;;;;;;;;4409890;32;19933;-72
2022/12/01 02:23:52;;;;;;;;;;;;;;;;;;4408062;32;20002;-72
2022/12/01 02:26:17;;;;;;;;;;;;;;;;;;4404942;32;19968;-72
2022/12/01 02:28:42;;;;;;;;;;;;;;;;;;4392868;32;19942;-72
2022/12/01 02:31:07;;;;;;;;;;;;;;;;;;4390818;32;19951;-73
2022/12/01 02:33:32;;;;;;;;;;;;;;;;;;4394358;32;20300;-72
2022/12/01 02:35:58;;;;;;;;;;;;;;;;;;4394788;32;20028;-71
2022/12/01 02:38:23;;;;;;;;;;;;;;;;;;4405047;32;19941;-73
2022/12/01 02:40:48;;;;;;;;;;;;;;;;;;4407805;32;19929;-72
2022/12/01 02:43:13;;;;;;;;;;;;;;;;;;4396510;32;19945;-71
2022/12/01 02:45:38;;;;;;;;;;;;;;;;;;4391304;32;19944;-71
2022/12/01 02:48:03;;;;;;;;;;;;;;;;;;4407950;32;20357;-71
2022/12/01 02:50:28;;;;;;;;;;;;;;;;;;4424219;32;19964;-71
2022/12/01 02:52:53;;;;;;;;;;;;;;;;;;4424272;32;19945;-71
2022/12/01 02:55:18;;;;;;;;;;;;;;;;;;4423895;32;19982;-72
2022/12/01 02:57:43;;;;;;;;;;;;;;;;;;4409027;32;19938;-72
2022/12/01 03:00:12;;;;;;;;;;;;;;;;;;4407145;32;19993;-71
2022/12/01 03:02:41;;;;;;;;;;;;;;;;;;4404987;32;19952;-71
2022/12/01 03:05:06;;;;;;;;;;;;;;;;;;4408883;32;19952;-71
2022/12/01 03:07:32;;;;;;;;;;;;;;;;;;4405565;32;19969;-72
2022/12/01 03:09:57;;;;;;;;;;;;;;;;;;4408879;32;19944;-72
2022/12/01 03:12:22;;;;;;;;;;;;;;;;;;4408187;32;19976;-71
2022/12/01 03:14:47;;;;;;;;;;;;;;;;;;4407660;32;20366;-71
2022/12/01 03:17:12;;;;;;;;;;;;;;;;;;4406582;32;19985;-71
2022/12/01 03:19:38;;;;;;;;;;;;;;;;;;4407972;32;19967;-70
2022/12/01 03:22:03;;;;;;;;;;;;;;;;;;4407526;32;19941;-73
2022/12/01 03:24:30;;;;;;;;;;;;;;;;;;4406917;32;19937;-72
2022/12/01 03:26:55;;;;;;;;;;;;;;;;;;4399384;32;19977;-73
2022/12/01 03:29:20;;;;;;;;;;;;;;;;;;4391721;32;20356;-72
2022/12/01 03:31:46;;;;;;;;;;;;;;;;;;4391852;32;19992;-72
2022/12/01 03:34:11;;;;;;;;;;;;;;;;;;4391509;32;19969;-72
2022/12/01 03:36:36;;;;;;;;;;;;;;;;;;4395998;32;19933;-72
2022/12/01 03:39:01;;;;;;;;;;;;;;;;;;4407668;32;19941;-71
2022/12/01 03:41:27;;;;;;;;;;;;;;;;;;4406826;32;19952;-72
2022/12/01 03:43:52;;;;;;;;;;;;;;;;;;4408339;32;20035;-72
2022/12/01 03:46:17;;;;;;;;;;;;;;;;;;4405594;32;19930;-71
2022/12/01 03:48:42;;;;;;;;;;;;;;;;;;4393350;32;20125;-72
2022/12/01 03:51:07;;;;;;;;;;;;;;;;;;4408653;32;19993;-73
2022/12/01 03:53:32;;;;;;;;;;;;;;;;;;4406508;32;19969;-72
2022/12/01 03:55:57;;;;;;;;;;;;;;;;;;4406464;32;19985;-72
2022/12/01 03:58:22;;;;;;;;;;;;;;;;;;4407735;32;20357;-71
2022/12/01 04:00:50;;;;;;;;;;;;;;;;;;4408006;32;19971;-71
2022/12/01 04:03:15;;;;;;;;;;;;;;;;;;4405576;32;20291;-71
2022/12/01 04:05:40;;;;;;;;;;;;;;;;;;4406999;32;20278;-72
2022/12/01 04:08:05;;;;;;;;;;;;;;;;;;4393854;32;19942;-73
2022/12/01 04:10:31;;;;;;;;;;;;;;;;;;4392598;32;19953;-73
2022/12/01 04:12:58;;;;;;;;;;;;;;;;;;4390627;32;19946;-73
2022/12/01 04:15:23;;;;;;;;;;;;;;;;;;4390953;32;19949;-73
2022/12/01 04:17:48;;;;;;;;;;;;;;;;;;4402610;32;19945;-72
2022/12/01 04:20:13;;;;;;;;;;;;;;;;;;4407822;32;20306;-73
2022/12/01 04:22:38;;;;;;;;;;;;;;;;;;4406166;32;19975;-73
2022/12/01 04:25:03;;;;;;;;;;;;;;;;;;4407478;32;19938;-71
2022/12/01 04:27:29;;;;;;;;;;;;;;;;;;4398373;32;19937;-72
2022/12/01 04:29:54;;;;;;;;;;;;;;;;;;4391181;32;20282;-72
2022/12/01 04:32:19;;;;;;;;;;;;;;;;;;4391759;32;19953;-72
2022/12/01 04:34:44;;;;;;;;;;;;;;;;;;4392348;32;19956;-72
2022/12/01 04:37:10;;;;;;;;;;;;;;;;;;4397505;32;19976;-72
2022/12/01 04:39:36;;;;;;;;;;;;;;;;;;4407319;32;19971;-72
2022/12/01 04:42:01;;;;;;;;;;;;;;;;;;4406232;32;19973;-72
2022/12/01 04:44:26;;;;;;;;;;;;;;;;;;4407938;32;19934;-72
2022/12/01 04:46:51;;;;;;;;;;;;;;;;;;4401610;32;19989;-72
2022/12/01 04:49:17;;;;;;;;;;;;;;;;;;4390700;32;19996;-72
2022/12/01 04:51:42;;;;;;;;;;;;;;;;;;4392561;32;19973;-72
2022/12/01 04:54:07;;;;;;;;;;;;;;;;;;4391256;32;19942;-71
2022/12/01 04:56:32;;;;;;;;;;;;;;;;;;4392568;32;19965;-72
2022/12/01 04:58:58;;;;;;;;;;;;;;;;;;4406387;32;19952;-72
2022/12/01 05:01:23;;;;;;;;;;;;;;;;;;4407413;32;19948;-71
2022/12/01 05:03:48;;;;;;;;;;;;;;;;;;4405690;32;19938;-73
2022/12/01 05:06:13;;;;;;;;;;;;;;;;;;4404036;32;20419;-73
2022/12/01 05:08:38;;;;;;;;;;;;;;;;;;4391846;32;19958;-73
2022/12/01 05:11:06;;;;;;;;;;;;;;;;;;4392372;32;19971;-73
2022/12/01 05:13:31;;;;;;;;;;;;;;;;;;4398715;32;19949;-73
2022/12/01 05:15:56;;;;;;;;;;;;;;;;;;4405418;32;19933;-73
2022/12/01 05:18:21;;;;;;;;;;;;;;;;;;4406831;32;20307;-71
2022/12/01 05:20:55;;;;;;;;;;;;;;;;;;4406909;32;19937;-72
2022/12/01 05:23:20;;;;;;;;;;;;;;;;;;4396190;32;20074;-71
2022/12/01 05:25:46;;;;;;;;;;;;;;;;;;4389653;32;19989;-73
2022/12/01 05:28:11;;;;;;;;;;;;;;;;;;4389638;32;19989;-71
2022/12/01 05:30:36;;;;;;;;;;;;;;;;;;4390140;32;19938;-72
2022/12/01 05:33:02;;;;;;;;;;;;;;;;;;4396828;32;19930;-72
2022/12/01 05:35:27;;;;;;;;;;;;;;;;;;4406312;32;19974;-72
2022/12/01 05:37:52;;;;;;;;;;;;;;;;;;4407227;32;19937;-71
2022/12/01 05:40:17;;;;;;;;;;;;;;;;;;4404796;32;20364;-73
2022/12/01 05:42:42;;;;;;;;;;;;;;;;;;4401948;32;19966;-73
2022/12/01 05:45:07;;;;;;;;;;;;;;;;;;4392592;32;19933;-72
2022/12/01 05:47:32;;;;;;;;;;;;;;;;;;4391625;32;19995;-73
2022/12/01 05:49:57;;;;;;;;;;;;;;;;;;4390168;32;20370;-72
2022/12/01 05:52:23;;;;;;;;;;;;;;;;;;4396426;32;19979;-73
2022/12/01 05:54:48;;;;;;;;;;;;;;;;;;4403500;32;19997;-73
2022/12/01 05:57:13;;;;;;;;;;;;;;;;;;4403937;32;19986;-71
2022/12/01 05:59:38;;;;;;;;;;;;;;;;;;4405206;32;20318;-72
2022/12/01 06:02:03;;;;;;;;;;;;;;;;;;4403916;32;19952;-73
2022/12/01 06:04:28;;;;;;;;;;;;;;;;;;4404376;32;20005;-72
2022/12/01 06:06:53;;;;;;;;;;;;;;;;;;4404953;32;20278;-72
2022/12/01 06:09:18;;;;;;;;;;;;;;;;;;4403584;32;19941;-71
2022/12/01 06:11:43;;;;;;;;;;;;;;;;;;4407126;32;19949;-70
2022/12/01 06:14:08;;;;;;;;;;;;;;;;;;4402933;32;19937;-72
2022/12/01 06:16:34;;;;;;;;;;;;;;;;;;4403259;32;19981;-72
2022/12/01 06:18:59;;;;;;;;;;;;;;;;;;4405076;32;20224;-73
2022/12/01 06:21:24;;;;;;;;;;;;;;;;;;4404172;32;19979;-73
2022/12/01 06:23:49;;;;;;;;;;;;;;;;;;4402029;32;19937;-73
2022/12/01 06:26:14;;;;;;;;;;;;;;;;;;4388307;32;19938;-72
2022/12/01 06:28:39;;;;;;;;;;;;;;;;;;4390426;32;19953;-73
2022/12/01 06:31:04;;;;;;;;;;;;;;;;;;4389111;32;20290;-73
2022/12/01 06:33:30;;;;;;;;;;;;;;;;;;4389936;32;19938;-72
2022/12/01 06:35:55;;;;;;;;;;;;;;;;;;4402622;32;20016;-72
2022/12/01 06:38:20;;;;;;;;;;;;;;;;;;4404344;32;19952;-73
2022/12/01 06:40:45;;;;;;;;;;;;;;;;;;4406517;32;19937;-73
2022/12/01 06:43:10;;;;;;;;;;;;;;;;;;4407103;32;20338;-73
2022/12/01 06:45:35;;;;;;;;;;;;;;;;;;4407397;32;19950;-71
2022/12/01 06:48:00;;;;;;;;;;;;;;;;;;4407424;32;20043;-74
2022/12/01 06:50:25;;;;;;;;;;;;;;;;;;4398643;32;20357;-74
2022/12/01 06:52:51;;;;;;;;;;;;;;;;;;4397232;32;19937;-72
2022/12/01 06:55:16;;;;;;;;;;;;;;;;;;4396874;32;19938;-72
2022/12/01 06:57:42;;;;;;;;;;;;;;;;;;4397503;32;20132;-72
2022/12/01 07:00:07;;;;;;;;;;;;;;;;;;4396393;32;20024;-72
2022/12/01 07:02:32;;;;;;;;;;;;;;;;;;4397613;32;20047;-72
2022/12/01 07:04:57;;;;;;;;;;;;;;;;;;4398445;32;20030;-72
2022/12/01 07:07:23;;;;;;;;;;;;;;;;;;4395918;32;19987;-72
2022/12/01 07:09:48;;;;;;;;;;;;;;;;;;4398547;32;20276;-73
2022/12/01 07:12:13;;;;;;;;;;;;;;;;;;4399680;32;20459;-73
2022/12/01 07:14:38;;;;;;;;;;;;;;;;;;4399183;32;20003;-72
2022/12/01 07:17:03;;;;;;;;;;;;;;;;;;4398016;32;19941;-72
2022/12/01 07:19:29;;;;;;;;;;;;;;;;;;4397728;32;20040;-71
2022/12/01 07:21:54;;;;;;;;;;;;;;;;;;4396571;32;19941;-71
2022/12/01 07:24:19;;;;;;;;;;;;;;;;;;4404396;32;19961;-72
2022/12/01 07:26:44;;;;;;;;;;;;;;;;;;4403820;32;19945;-72
2022/12/01 07:29:09;;;;;;;;;;;;;;;;;;4406928;32;19975;-72
2022/12/01 07:31:34;;;;;;;;;;;;;;;;;;4406354;32;19981;-71
2022/12/01 07:33:59;;;;;;;;;;;;;;;;;;4407006;32;19972;-72
2022/12/01 07:36:24;;;;;;;;;;;;;;;;;;4405244;32;19942;-72
2022/12/01 07:38:50;;;;;;;;;;;;;;;;;;4406886;32;19944;-72
2022/12/01 07:41:15;;;;;;;;;;;;;;;;;;4405709;32;19945;-71
2022/12/01 07:43:40;;;;;;;;;;;;;;;;;;4405782;32;19945;-73
2022/12/01 07:46:05;;;;;;;;;;;;;;;;;;4405953;32;19979;-71
2022/12/01 07:48:30;;;;;;;;;;;;;;;;;;4405804;32;19973;-73
2022/12/01 07:50:55;;;;;;;;;;;;;;;;;;4397589;32;19950;-74
2022/12/01 07:53:20;;;;;;;;;;;;;;;;;;4398587;32;19981;-71
2022/12/01 07:55:45;;;;;;;;;;;;;;;;;;4396280;32;19950;-72
2022/12/01 07:58:10;;;;;;;;;;;;;;;;;;4396826;32;19983;-71
2022/12/01 08:00:35;;;;;;;;;;;;;;;;;;4396455;32;20292;-71
2022/12/01 08:03:01;;;;;;;;;;;;;;;;;;4398503;32;19937;-73
2022/12/01 08:05:26;;;;;;;;;;;;;;;;;;4397455;32;19950;-73
2022/12/01 08:07:51;;;;;;;;;;;;;;;;;;4396350;32;19951;-72
2022/12/01 08:10:16;;;;;;;;;;;;;;;;;;4397280;32;19938;-71
2022/12/01 08:12:41;;;;;;;;;;;;;;;;;;4396725;32;19993;-72
2022/12/01 08:15:06;;;;;;;;;;;;;;;;;;4396301;32;20384;-73
2022/12/01 08:17:31;;;;;;;;;;;;;;;;;;4398606;32;19974;-73
2022/12/01 08:19:56;;;;;;;;;;;;;;;;;;4397021;32;19970;-73
2022/12/01 08:22:21;;;;;;;;;;;;;;;;;;4389637;32;19965;-72
2022/12/01 08:24:46;;;;;;;;;;;;;;;;;;4389485;32;19949;-72
2022/12/01 08:27:12;;;;;;;;;;;;;;;;;;4390112;32;20011;-72
2022/12/01 08:29:37;;;;;;;;;;;;;;;;;;4390235;32;19934;-72
2022/12/01 08:32:02;;;;;;;;;;;;;;;;;;4389914;32;20276;-73
2022/12/01 08:34:27;;;;;;;;;;;;;;;;;;4390557;32;20353;-72
2022/12/01 08:36:52;;;;;;;;;;;;;;;;;;4388997;32;19938;-72
2022/12/01 08:39:17;;;;;;;;;;;;;;;;;;4393069;32;20275;-72
2022/12/01 08:41:42;;;;;;;;;;;;;;;;;;4406580;32;20052;-72
2022/12/01 08:44:07;;;;;;;;;;;;;;;;;;4404263;32;20254;-72
2022/12/01 08:46:33;;;;;;;;;;;;;;;;;;4405814;32;19937;-71
2022/12/01 08:48:58;;;;;;;;;;;;;;;;;;4407076;32;20303;-72
2022/12/01 08:51:23;;;;;;;;;;;;;;;;;;4397879;32;20455;-72
2022/12/01 08:53:48;;;;;;;;;;;;;;;;;;4404720;32;19972;-71
2022/12/01 08:56:13;;;;;;;;;;;;;;;;;;4398944;32;19981;-72
2022/12/01 08:58:38;;;;;;;;;;;;;;;;;;4393229;32;19938;-73
2022/12/01 09:01:03;;;;;;;;;;;;;;;;;;4401909;32;19937;-74
2022/12/01 09:03:28;;;;;;;;;;;;;;;;;;4390537;32;19985;-72
2022/12/01 09:05:54;;;;;;;;;;;;;;;;;;4390689;32;20212;-72
2022/12/01 09:08:31;;;;;;;;;;;;;;;;;;4389760;32;19964;-73
2022/12/01 09:10:57;;;;;;;;;;;;;;;;;;4400868;32;19951;-72
2022/12/01 09:13:22;;;;;;;;;;;;;;;;;;4405862;32;19948;-73
2022/12/01 09:15:47;;;;;;;;;;;;;;;;;;4405979;32;19946;-72
2022/12/01 09:18:12;;;;;;;;;;;;;;;;;;4404884;32;19972;-72
2022/12/01 09:20:37;;;;;;;;;;;;;;;;;;4395899;32;19976;-72
2022/12/01 09:23:02;;;;;;;;;;;;;;;;;;4390033;32;19973;-72
2022/12/01 09:25:29;;;;;;;;;;;;;;;;;;4390965;32;19971;-72
2022/12/01 09:27:54;;;;;;;;;;;;;;;;;;4391375;32;20041;-72
2022/12/01 09:30:19;;;;;;;;;;;;;;;;;;4404706;32;19944;-71
2022/12/01 09:32:45;;;;;;;;;;;;;;;;;;4405085;32;19945;-72
2022/12/01 09:35:10;;;;;;;;;;;;;;;;;;4405332;32;19989;-73
2022/12/01 09:37:35;;;;;;;;;;;;;;;;;;4406194;32;19933;-71
2022/12/01 09:40:00;;;;;;;;;;;;;;;;;;4400378;32;19948;-73
2022/12/01 09:42:26;;;;;;;;;;;;;;;;;;4389505;32;19938;-73
2022/12/01 09:44:51;;;;;;;;;;;;;;;;;;4389287;32;19934;-73
2022/12/01 09:47:17;;;;;;;;;;;;;;;;;;4389992;32;19938;-73
2022/12/01 09:49:42;;;;;;;;;;;;;;;;;;4404368;32;20361;-73
2022/12/01 09:52:09;;;;;;;;;;;;;;;;;;4398166;32;20335;-72
2022/12/01 09:54:34;;;;;;;;;;;;;;;;;;4388229;32;20349;-73
2022/12/01 09:56:59;;;;;;;;;;;;;;;;;;4390195;32;20244;-73
2022/12/01 09:59:24;;;;;;;;;;;;;;;;;;4390117;32;20371;-73
2022/12/01 10:01:49;;;;;;;;;;;;;;;;;;4391356;32;19999;-74
2022/12/01 10:04:15;;;;;;;;;;;;;;;;;;4391031;32;19945;-72
2022/12/01 10:06:40;;;;;;;;;;;;;;;;;;4391240;32;20271;-73
2022/12/01 10:09:05;;;;;;;;;;;;;;;;;;4387484;32;19938;-72
2022/12/01 10:11:30;;;;;;;;;;;;;;;;;;4388866;32;20351;-73
2022/12/01 10:13:55;;;;;;;;;;;;;;;;;;4389068;32;19945;-73
2022/12/01 10:16:20;;;;;;;;;;;;;;;;;;4389403;32;20357;-72
2022/12/01 10:18:45;;;;;;;;;;;;;;;;;;4392363;32;19952;-73
2022/12/01 10:21:10;;;;;;;;;;;;;;;;;;4401531;32;19972;-72
2022/12/01 10:23:36;;;;;;;;;;;;;;;;;;4405975;32;19952;-73
2022/12/01 10:26:01;;;;;;;;;;;;;;;;;;4407415;32;20401;-74
2022/12/01 10:28:26;;;;;;;;;;;;;;;;;;4408561;32;19976;-73
2022/12/01 10:30:51;;;;;;;;;;;;;;;;;;4406092;32;20314;-74
2022/12/01 10:33:17;;;;;;;;;;;;;;;;;;4406796;32;19949;-73
2022/12/01 10:35:42;;;;;;;;;;;;;;;;;;4406896;32;20392;-75
2022/12/01 10:38:07;;;;;;;;;;;;;;;;;;4393840;32;19937;-73
2022/12/01 10:40:34;;;;;;;;;;;;;;;;;;4392523;32;19994;-74
2022/12/01 10:42:59;;;;;;;;;;;;;;;;;;4392768;32;19960;-74
2022/12/01 10:45:24;;;;;;;;;;;;;;;;;;4391084;32;19942;-73
2022/12/01 10:47:49;;;;;;;;;;;;;;;;;;4396288;32;19942;-76
2022/12/01 10:50:14;;;;;;;;;;;;;;;;;;4402451;32;19993;-75
2022/12/01 10:52:39;;;;;;;;;;;;;;;;;;4412957;32;19930;-75
2022/12/01 10:55:04;;;;;;;;;;;;;;;;;;4413757;32;19968;-73
2022/12/01 10:57:29;;;;;;;;;;;;;;;;;;4413469;32;20302;-74
2022/12/01 10:59:54;;;;;;;;;;;;;;;;;;4409833;32;19937;-74
2022/12/01 11:02:20;;;;;;;;;;;;;;;;;;4392503;32;19948;-75
2022/12/01 11:04:45;;;;;;;;;;;;;;;;;;4392898;32;20001;-74
2022/12/01 11:07:10;;;;;;;;;;;;;;;;;;4390011;32;19966;-74
2022/12/01 11:09:35;;;;;;;;;;;;;;;;;;4389591;32;19946;-73
2022/12/01 11:12:00;;;;;;;;;;;;;;;;;;4405730;32;19944;-73
2022/12/01 11:14:25;;;;;;;;;;;;;;;;;;4405603;32;19948;-75
2022/12/01 11:16:52;;;;;;;;;;;;;;;;;;4404609;32;19975;-73
2022/12/01 11:19:17;;;;;;;;;;;;;;;;;;4405052;32;20266;-77
2022/12/01 11:21:42;;;;;;;;;;;;;;;;;;4404427;32;20274;-73
2022/12/01 11:24:07;;;;;;;;;;;;;;;;;;4405783;32;20347;-73
2022/12/01 11:26:33;;;;;;;;;;;;;;;;;;4408339;32;19968;-73
2022/12/01 11:28:58;;;;;;;;;;;;;;;;;;4405505;32;19941;-73
2022/12/01 11:31:23;;;;;;;;;;;;;;;;;;4396281;32;19933;-73
2022/12/01 11:33:49;;;;;;;;;;;;;;;;;;4391126;32;19953;-73
2022/12/01 11:36:14;;;;;;;;;;;;;;;;;;4390040;32;19942;-74
2022/12/01 11:38:39;;;;;;;;;;;;;;;;;;4392592;32;20278;-72
2022/12/01 11:41:04;;;;;;;;;;;;;;;;;;4398412;32;19970;-73
2022/12/01 11:43:29;;;;;;;;;;;;;;;;;;4403868;32;19964;-73
2022/12/01 11:45:54;;;;;;;;;;;;;;;;;;4396102;32;20353;-73
2022/12/01 11:48:19;;;;;;;;;;;;;;;;;;4392101;32;19989;-74
2022/12/01 11:50:44;;;;;;;;;;;;;;;;;;4392253;32;20016;-73
2022/12/01 11:53:09;;;;;;;;;;;;;;;;;;4390880;32;20104;-73
2022/12/01 11:55:34;;;;;;;;;;;;;;;;;;4392106;32;19937;-73
2022/12/01 11:57:59;;;;;;;;;;;;;;;;;;4393619;32;19945;-73
2022/12/01 12:00:25;;;;;;;;;;;;;;;;;;4391102;32;20346;-73
2022/12/01 12:02:50;;;;;;;;;;;;;;;;;;4399906;32;19952;-73
2022/12/01 12:05:15;;;;;;;;;;;;;;;;;;4405624;32;19979;-72
2022/12/01 12:07:40;;;;;;;;;;;;;;;;;;4405823;32;19945;-74
2022/12/01 12:10:05;;;;;;;;;;;;;;;;;;4408179;32;19945;-72
2022/12/01 12:12:30;;;;;;;;;;;;;;;;;;4407529;32;20353;-72
2022/12/01 12:14:55;;;;;;;;;;;;;;;;;;4406110;32;19937;-74
2022/12/01 12:17:20;;;;;;;;;;;;;;;;;;4408080;32;19937;-72
2022/12/01 12:19:45;;;;;;;;;;;;;;;;;;4404914;32;19948;-72
2022/12/01 12:22:10;;;;;;;;;;;;;;;;;;4406370;32;19973;-74
2022/12/01 12:24:36;;;;;;;;;;;;;;;;;;4405690;32;19941;-73
2022/12/01 12:27:01;;;;;;;;;;;;;;;;;;4405962;32;19960;-73
2022/12/01 12:29:26;;;;;;;;;;;;;;;;;;4404719;32;19942;-72
2022/12/01 12:31:51;;;;;;;;;;;;;;;;;;4405106;32;19968;-73
2022/12/01 12:34:18;;;;;;;;;;;;;;;;;;4405858;32;20274;-73
2022/12/01 12:36:43;;;;;;;;;;;;;;;;;;4405717;32;20216;-75
2022/12/01 12:39:08;;;;;;;;;;;;;;;;;;4405961;32;20289;-74
2022/12/01 12:41:33;;;;;;;;;;;;;;;;;;4406243;32;20341;-73
2022/12/01 12:43:58;;;;;;;;;;;;;;;;;;4405153;32;20299;-74
2022/12/01 12:46:23;;;;;;;;;;;;;;;;;;4407295;32;19933;-73
2022/12/01 12:48:48;;;;;;;;;;;;;;;;;;4407145;32;19942;-74
2022/12/01 12:51:13;;;;;;;;;;;;;;;;;;4407048;32;19953;-74
2022/12/01 12:53:38;;;;;;;;;;;;;;;;;;4405317;32;20263;-73
2022/12/01 12:56:03;;;;;;;;;;;;;;;;;;4405796;32;19948;-72
2022/12/01 12:58:28;;;;;;;;;;;;;;;;;;4406367;32;19933;-73
2022/12/01 13:00:54;;;;;;;;;;;;;;;;;;4406492;32;20044;-74
2022/12/01 13:03:19;;;;;;;;;;;;;;;;;;4404845;32;19938;-74
2022/12/01 13:05:44;;;;;;;;;;;;;;;;;;4406809;32;20250;-73
2022/12/01 13:08:09;;;;;;;;;;;;;;;;;;4406295;32;19952;-73
2022/12/01 13:10:34;;;;;;;;;;;;;;;;;;4404284;32;19934;-73
2022/12/01 13:12:59;;;;;;;;;;;;;;;;;;4405611;32;20004;-73
2022/12/01 13:15:25;;;;;;;;;;;;;;;;;;4405433;32;19971;-74
2022/12/01 13:17:50;;;;;;;;;;;;;;;;;;4405406;32;20292;-74
2022/12/01 13:20:16;;;;;;;;;;;;;;;;;;4406154;32;19938;-73
2022/12/01 13:22:41;;;;;;;;;;;;;;;;;;4404752;32;19949;-73
2022/12/01 13:25:06;;;;;;;;;;;;;;;;;;4404910;32;19948;-73
2022/12/01 13:27:31;;;;;;;;;;;;;;;;;;4405302;32;19941;-73
2022/12/01 13:29:57;;;;;;;;;;;;;;;;;;4405063;32;20293;-73
2022/12/01 13:32:22;;;;;;;;;;;;;;;;;;4405456;32;19938;-73
2022/12/01 13:34:47;;;;;;;;;;;;;;;;;;4406517;32;19933;-73
2022/12/01 13:37:12;;;;;;;;;;;;;;;;;;4404740;32;20103;-73
2022/12/01 13:39:37;;;;;;;;;;;;;;;;;;4406510;32;19983;-74
2022/12/01 13:42:02;;;;;;;;;;;;;;;;;;4404673;32;19973;-72
2022/12/01 13:44:27;;;;;;;;;;;;;;;;;;4406219;32;20275;-74
2022/12/01 13:46:52;;;;;;;;;;;;;;;;;;4406230;32;19938;-72
2022/12/01 13:49:17;;;;;;;;;;;;;;;;;;4403368;32;19937;-73
2022/12/01 13:51:42;;;;;;;;;;;;;;;;;;4404024;32;19989;-73
2022/12/01 13:54:08;;;;;;;;;;;;;;;;;;4405945;32;20355;-73
2022/12/01 13:56:33;;;;;;;;;;;;;;;;;;4403538;32;19973;-73
2022/12/01 13:58:58;;;;;;;;;;;;;;;;;;4403437;32;19937;-72
2022/12/01 14:01:23;;;;;;;;;;;;;;;;;;4403610;32;20348;-74
2022/12/01 14:03:48;;;;;;;;;;;;;;;;;;4404767;32;19945;-73
2022/12/01 14:06:13;;;;;;;;;;;;;;;;;;4404826;32;20362;-72
2022/12/01 14:08:38;;;;;;;;;;;;;;;;;;4406574;32;19937;-73
2022/12/01 14:11:03;;;;;;;;;;;;;;;;;;4404599;32;19933;-73
2022/12/01 14:13:28;;;;;;;;;;;;;;;;;;4404640;32;19948;-74
2022/12/01 14:15:54;;;;;;;;;;;;;;;;;;4404142;32;20318;-73
2022/12/01 14:18:19;;;;;;;;;;;;;;;;;;4403903;32;19942;-71
2022/12/01 14:20:44;;;;;;;;;;;;;;;;;;4405179;32;19956;-73
2022/12/01 14:23:09;;;;;;;;;;;;;;;;;;4404882;32;19944;-75
2022/12/01 14:25:34;;;;;;;;;;;;;;;;;;4405538;32;20230;-74
2022/12/01 14:27:59;;;;;;;;;;;;;;;;;;4406684;32;19997;-73
2022/12/01 14:30:24;;;;;;;;;;;;;;;;;;4398831;32;19980;-73
2022/12/01 14:32:50;;;;;;;;;;;;;;;;;;4403075;32;19953;-74
2022/12/01 14:35:15;;;;;;;;;;;;;;;;;;4404908;32;20334;-74
2022/12/01 14:37:40;;;;;;;;;;;;;;;;;;4405928;32;19942;-73
2022/12/01 14:40:05;;;;;;;;;;;;;;;;;;4391706;32;19956;-72
2022/12/01 14:45:14;;;;;;;;;;;;;;;;;;4418729;32;19952;-72
2022/12/01 14:47:39;;;;;;;;;;;;;;;;;;4421575;32;19938;-73
2022/12/01 14:50:04;;;;;;;;;;;;;;;;;;4415684;32;19947;-74
2022/12/01 14:52:30;;;;;;;;;;;;;;;;;;4414678;32;19985;-74
2022/12/01 14:54:55;;;;;;;;;;;;;;;;;;4414501;32;20328;-73
2022/12/01 14:57:21;;;;;;;;;;;;;;;;;;4404393;32;19984;-73
2022/12/01 14:59:46;;;;;;;;;;;;;;;;;;4396714;32;19944;-72
2022/12/01 15:02:11;;;;;;;;;;;;;;;;;;4404005;32;19957;-73
2022/12/01 15:04:36;;;;;;;;;;;;;;;;;;4405110;32;19938;-72
2022/12/01 15:07:01;;;;;;;;;;;;;;;;;;4397237;32;19933;-73
2022/12/01 15:09:26;;;;;;;;;;;;;;;;;;4400829;32;20341;-75
2022/12/01 15:11:52;;;;;;;;;;;;;;;;;;4405762;32;19967;-74
2022/12/01 15:14:17;;;;;;;;;;;;;;;;;;4405790;32;20318;-73
2022/12/01 15:16:42;;;;;;;;;;;;;;;;;;4406955;32;20300;-73
2022/12/01 15:19:07;;;;;;;;;;;;;;;;;;4408629;32;19957;-73
2022/12/01 15:21:32;;;;;;;;;;;;;;;;;;4399899;32;19938;-74
2022/12/01 15:23:57;;;;;;;;;;;;;;;;;;4393088;32;19942;-74
2022/12/01 15:26:23;;;;;;;;;;;;;;;;;;4393462;32;20317;-73
2022/12/01 15:28:48;;;;;;;;;;;;;;;;;;4392561;32;19946;-74
2022/12/01 15:31:13;;;;;;;;;;;;;;;;;;4393953;32;19942;-73
2022/12/01 15:33:38;;;;;;;;;;;;;;;;;;4391560;32;19949;-72
2022/12/01 15:36:03;;;;;;;;;;;;;;;;;;4391089;32;19967;-72
2022/12/01 15:38:28;;;;;;;;;;;;;;;;;;4391416;32;19934;-73
2022/12/01 15:40:54;;;;;;;;;;;;;;;;;;4392857;32;20335;-74
2022/12/01 15:43:19;;;;;;;;;;;;;;;;;;4408610;32;20341;-71
2022/12/01 15:45:44;;;;;;;;;;;;;;;;;;4407922;32;20315;-72
2022/12/01 15:48:09;;;;;;;;;;;;;;;;;;4407790;32;19942;-73
2022/12/01 15:50:35;;;;;;;;;;;;;;;;;;4404973;32;19972;-74
2022/12/01 15:53:00;;;;;;;;;;;;;;;;;;4407431;32;20357;-73
2022/12/01 15:55:25;;;;;;;;;;;;;;;;;;4404751;32;20300;-72
2022/12/01 15:57:50;;;;;;;;;;;;;;;;;;4405837;32;19933;-73
2022/12/01 16:00:15;;;;;;;;;;;;;;;;;;4407771;32;19937;-73
2022/12/01 16:02:41;;;;;;;;;;;;;;;;;;4405178;32;19938;-73
2022/12/01 16:05:06;;;;;;;;;;;;;;;;;;4406222;32;20308;-73
2022/12/01 16:07:31;;;;;;;;;;;;;;;;;;4406202;32;19993;-72
2022/12/01 16:09:56;;;;;;;;;;;;;;;;;;4405021;32;19949;-72
2022/12/01 16:12:21;;;;;;;;;;;;;;;;;;4407106;32;19934;-72
2022/12/01 16:14:46;;;;;;;;;;;;;;;;;;4407343;32;20246;-72
2022/12/01 16:17:11;;;;;;;;;;;;;;;;;;4407921;32;19938;-73
2022/12/01 16:19:37;;;;;;;;;;;;;;;;;;4407711;32;19933;-73
2022/12/01 16:22:03;;;;;;;;;;;;;;;;;;4404259;32;19979;-72
2022/12/01 16:24:29;;;;;;;;;;;;;;;;;;4394643;32;19937;-72
2022/12/01 16:26:54;;;;;;;;;;;;;;;;;;4405900;32;19952;-73
2022/12/01 16:29:19;;;;;;;;;;;;;;;;;;4395676;32;19942;-72
2022/12/01 16:31:44;;;;;;;;;;;;;;;;;;4397233;32;19949;-72
2022/12/01 16:34:09;;;;;;;;;;;;;;;;;;4397414;32;19975;-72